Islip, New York
Current Conditions -  °F | °C
As of 4:56 PM on Friday 31 Oct 2014 (Local Time) from KISP Reporting Station
Overcast Overcast  
Wind Chill: 12°   Ceiling: 6500
Heat Index: 12°   Visibility: 10mi
Dew Point:   Wind: 14mph
Humidity: 66%   Direction: 40°NE
Pressure: 29.89"   Gusts: NA
Location:  40.73°N, 73.21°W
Report Text: KISP 312056Z 04012KT 10SM FEW025 OVC065 12/06 A2989 RMK AO2 SLP120 T01220061 55006
Loading
Personal Weather Stations






























Interactive Weather Map
Tropical Storm Tracking
New forecast layout! Learn more

10-Day Weather Forecast

Advertisements
Track Severe Weather on mobile